< < Back
Terminal Aerodrome Forecast


Current Version              Previous Versions:   1  2  3  4  5  6  7  8  9  

Terminal Aerodrome Forecast

073
FTUS44 KOHX 272325
TAFCSV
TAF
KCSV 272325Z 2800/2824 23004KT P6SM SCT040 BKN060
     FM280900 21003KT 5SM BR VCSH BKN025 OVC050
     FM281400 22006KT 4SM -SHRA BR BKN007 OVC015
     FM282000 21008KT 2SM TSRA OVC007CB=

Latest METAR

540
SAUS70 KWBC 280300 RRF
MTRCSV
METAR KCSV 280253Z AUTO 00000KT 10SM SCT065 25/21 A3005 RMK AO2 SLP150
T02500211 51017


USA.gov is the U.S. government's official web portal to all federal, state and local government web resources and services.